^^
Station Historical Data
Daily Summary for February 6, 2017 Units:  English    Metric   Both
« Previous Day
Next Day »
Daily Weekly Monthly Yearly Custom
  High: Low: Average:
Temperature: 46.4 °F 32.1 °F 38.1 °F
Dew Point: 32.1 °F 16.9 °F 23.6 °F
Humidity: 90% 40% 57%
Wind Speed: 7.0mph 0.0mph 1.6mph
Wind Gust: 22.0mph - -
Wind- - SSW
Pressure: 30.18 in 29.93 in -
Precipitation: 0.00 in    
Historical Graphs
 
 
Tabular Data for February 6, 2017
Time Temperature Dew Point Pressure Wind Wind Speed Wind Gust Humidity Rainfall Rate (Hourly) Conditions
00:00 40.0 °F 24.7 °F 29.93 in SW 5.0 mph 13.0 mph 54% 0.00 in BKN
00:10 40.1 °F 24.8 °F 29.94 in SW 6.0 mph 16.0 mph 54% 0.00 in BKN
00:20 40.0 °F 24.7 °F 29.94 in SSW 5.0 mph 14.0 mph 54% 0.00 in BKN
00:30 39.9 °F 24.6 °F 29.94 in SW 3.0 mph 12.0 mph 54% 0.00 in BKN
00:40 39.8 °F 24.5 °F 29.94 in WNW 7.0 mph 17.0 mph 54% 0.00 in BKN
00:50 39.7 °F 24.4 °F 29.94 in WSW 2.0 mph 15.0 mph 54% 0.00 in BKN
01:00 39.4 °F 24.6 °F 29.95 in WSW 3.0 mph 10.0 mph 55% 0.00 in BKN
01:10 39.3 °F 24.5 °F 29.94 in NNW 3.0 mph 12.0 mph 55% 0.00 in BKN
01:20 39.1 °F 24.7 °F 29.95 in West 3.0 mph 10.0 mph 56% 0.00 in BKN
01:30 39.0 °F 24.6 °F 29.95 in West 5.0 mph 16.0 mph 56% 0.00 in BKN
01:40 38.8 °F 24.4 °F 29.95 in West 5.0 mph 16.0 mph 56% 0.00 in BKN
01:50 38.5 °F 24.1 °F 29.95 in ESE 6.0 mph 10.0 mph 56% 0.00 in BKN
02:00 38.3 °F 24.4 °F 29.96 in ENE 2.0 mph 13.0 mph 57% 0.00 in BKN
02:10 38.1 °F 23.8 °F 29.96 in ENE 5.0 mph 22.0 mph 56% 0.00 in BKN
02:20 37.8 °F 23.0 °F 29.97 in NE 6.0 mph 22.0 mph 55% 0.00 in BKN
02:30 37.5 °F 22.8 °F 29.98 in NNW 1.0 mph 12.0 mph 55% 0.00 in BKN
02:40 37.4 °F 22.7 °F 29.99 in West 1.0 mph 12.0 mph 55% 0.00 in BKN
02:50 37.3 °F 22.6 °F 29.99 in WSW 3.0 mph 12.0 mph 55% 0.00 in BKN
03:00 37.2 °F 22.1 °F 30.00 in South 1.0 mph 12.0 mph 54% 0.00 in BKN
03:10 37.0 °F 22.3 °F 30.00 in SE 2.0 mph 13.0 mph 55% 0.00 in SCT
03:20 36.9 °F 21.3 °F 30.00 in West 6.0 mph 14.0 mph 53% 0.00 in SCT
03:30 36.9 °F 20.9 °F 30.01 in WSW 3.0 mph 16.0 mph 52% 0.00 in SCT
03:40 36.9 °F 20.9 °F 30.01 in SW 3.0 mph 12.0 mph 52% 0.00 in SCT
03:50 36.8 °F 21.3 °F 30.01 in SW 3.0 mph 9.0 mph 53% 0.00 in SCT
04:00 36.7 °F 21.6 °F 30.01 in West 3.0 mph 8.0 mph 54% 0.00 in SCT
04:10 36.7 °F 21.6 °F 30.02 in WSW 2.0 mph 7.0 mph 54% 0.00 in BKN
04:20 36.7 °F 21.6 °F 30.02 in SW 5.0 mph 12.0 mph 54% 0.00 in BKN
04:30 36.6 °F 21.5 °F 30.02 in SW 1.0 mph 7.0 mph 54% 0.00 in BKN
04:40 36.4 °F 21.8 °F 30.02 in West 1.0 mph 4.0 mph 55% 0.00 in BKN
04:50 36.2 °F 22.0 °F 30.03 in SW 1.0 mph 6.0 mph 56% 0.00 in BKN
05:00 36.1 °F 22.3 °F 30.03 in Calm   9.0 mph 57% 0.00 in BKN
05:10 35.9 °F 22.5 °F 30.03 in NNE 1.0 mph 7.0 mph 58% 0.00 in BKN
05:20 35.6 °F 23.1 °F 30.05 in NNE 2.0 mph 9.0 mph 60% 0.00 in BKN
05:30 35.3 °F 23.2 °F 30.06 in North 2.0 mph 8.0 mph 61% 0.00 in BKN
05:40 35.1 °F 23.0 °F 30.07 in NNW 5.0 mph 12.0 mph 61% 0.00 in BKN
05:50 34.9 °F 21.6 °F 30.08 in NNW 5.0 mph 12.0 mph 58% 0.00 in BKN
06:00 34.7 °F 21.0 °F 30.08 in North 3.0 mph 12.0 mph 57% 0.00 in BKN
06:10 34.5 °F 20.8 °F 30.09 in North 2.0 mph 9.0 mph 57% 0.00 in BKN
06:20 34.2 °F 19.3 °F 30.09 in North 5.0 mph 13.0 mph 54% 0.00 in BKN
06:30 33.9 °F 19.8 °F 30.09 in North 2.0 mph 12.0 mph 56% 0.00 in BKN
06:40 33.3 °F 19.7 °F 30.10 in Calm   5.0 mph 57% 0.00 in BKN
06:50 33.1 °F 18.7 °F 30.10 in Calm   12.0 mph 55% 0.00 in BKN
07:00 32.9 °F 18.9 °F 30.10 in SW 1.0 mph 7.0 mph 56% 0.00 in BKN
07:10 32.8 °F 18.4 °F 30.10 in Calm   7.0 mph 55% 0.00 in CLR
07:20 32.5 °F 18.1 °F 30.10 in ESE 1.0 mph 7.0 mph 55% 0.00 in CLR
07:30 32.4 °F 18.0 °F 30.11 in Calm   7.0 mph 55% 0.00 in CLR
07:40 32.2 °F 18.2 °F 30.12 in Calm   2.0 mph 56% 0.00 in CLR
07:50 32.1 °F 18.2 °F 30.12 in Calm   6.0 mph 56% 0.00 in CLR
08:00 32.3 °F 17.9 °F 30.12 in ENE 1.0 mph 7.0 mph 55% 0.00 in CLR
08:10 32.5 °F 17.7 °F 30.13 in NE 2.0 mph 11.0 mph 54% 0.00 in CLR
08:20 32.6 °F 17.8 °F 30.13 in NNE 2.0 mph 7.0 mph 54% 0.00 in CLR
08:30 32.8 °F 17.5 °F 30.14 in North 1.0 mph 6.0 mph 53% 0.00 in CLR
08:40 33.0 °F 17.3 °F 30.15 in NNE 1.0 mph 6.0 mph 52% 0.00 in CLR
08:50 33.3 °F 17.1 °F 30.16 in NNE 2.0 mph 10.0 mph 51% 0.00 in CLR
09:00 33.6 °F 16.9 °F 30.17 in NNW 1.0 mph 12.0 mph 50% 0.00 in CLR
09:10 34.0 °F 17.7 °F 30.17 in NNE 2.0 mph 9.0 mph 51% 0.00 in CLR
09:20 34.5 °F 17.7 °F 30.16 in NNE 1.0 mph 12.0 mph 50% 0.00 in CLR
09:30 34.9 °F 18.1 °F 30.17 in North 2.0 mph 12.0 mph 50% 0.00 in CLR
09:40 35.2 °F 17.9 °F 30.16 in North 3.0 mph 8.0 mph 49% 0.00 in CLR
09:50 35.5 °F 18.2 °F 30.16 in NW 3.0 mph 12.0 mph 49% 0.00 in CLR
10:00 35.7 °F 18.4 °F 30.17 in NNE 1.0 mph 12.0 mph 49% 0.00 in CLR
10:10 36.1 °F 18.3 °F 30.17 in NE 1.0 mph 9.0 mph 48% 0.00 in FEW
10:20 36.7 °F 18.8 °F 30.18 in North 3.0 mph 12.0 mph 48% 0.00 in FEW
10:30 36.8 °F 18.5 °F 30.17 in WNW 2.0 mph 9.0 mph 47% 0.00 in FEW
10:40 36.9 °F 18.5 °F 30.17 in NW 2.0 mph 6.0 mph 47% 0.00 in FEW
10:50 37.4 °F 19.5 °F 30.17 in North 1.0 mph 7.0 mph 48% 0.00 in FEW
11:10 37.6 °F 19.2 °F 30.16 in North 3.0 mph 10.0 mph 47% 0.00 in FEW
11:20 38.1 °F 19.1 °F 30.17 in SE 1.0 mph 7.0 mph 46% 0.00 in FEW
11:30 38.5 °F 19.5 °F 30.16 in WNW 1.0 mph 7.0 mph 46% 0.00 in FEW
11:40 39.0 °F 20.0 °F 30.16 in WSW 3.0 mph 10.0 mph 46% 0.00 in FEW
11:50 38.8 °F 19.8 °F 30.15 in NE 1.0 mph 7.0 mph 46% 0.00 in FEW
12:00 39.0 °F 20.0 °F 30.15 in WNW 2.0 mph 10.0 mph 46% 0.00 in FEW
12:10 39.1 °F 19.5 °F 30.14 in WSW 3.0 mph 9.0 mph 45% 0.00 in CLR
12:20 39.1 °F 19.5 °F 30.13 in NW 1.0 mph 6.0 mph 45% 0.00 in CLR
12:30 39.9 °F 19.7 °F 30.13 in NE 1.0 mph 8.0 mph 44% 0.00 in CLR
12:40 39.7 °F 19.5 °F 30.13 in NW 3.0 mph 9.0 mph 44% 0.00 in CLR
12:50 40.0 °F 19.8 °F 30.13 in NW 1.0 mph 7.0 mph 44% 0.00 in CLR
13:10 40.4 °F 20.2 °F 30.12 in NW 1.0 mph 7.0 mph 44% 0.00 in CLR
13:20 41.4 °F 20.6 °F 30.12 in West 1.0 mph 8.0 mph 43% 0.00 in CLR
13:30 41.8 °F 20.9 °F 30.11 in WNW 1.0 mph 9.0 mph 43% 0.00 in CLR
13:40 41.8 °F 19.8 °F 30.11 in West 1.0 mph 5.0 mph 41% 0.00 in CLR
13:50 42.1 °F 20.0 °F 30.10 in West 1.0 mph 7.0 mph 41% 0.00 in CLR
14:00 42.3 °F 20.9 °F 30.10 in West 2.0 mph 8.0 mph 42% 0.00 in CLR
14:10 42.4 °F 20.9 °F 30.10 in WNW 2.0 mph 7.0 mph 42% 0.00 in FEW
14:20 42.8 °F 21.3 °F 30.10 in WSW 2.0 mph 7.0 mph 42% 0.00 in FEW
14:30 43.7 °F 22.1 °F 30.10 in SW 2.0 mph 7.0 mph 42% 0.00 in FEW
14:40 43.7 °F 22.1 °F 30.10 in WSW 3.0 mph 8.0 mph 42% 0.00 in FEW
14:50 43.7 °F 22.1 °F 30.09 in West 2.0 mph 9.0 mph 42% 0.00 in FEW
15:00 44.6 °F 22.3 °F 30.09 in Calm   8.0 mph 41% 0.00 in FEW
15:10 44.7 °F 22.4 °F 30.09 in SW 2.0 mph 8.0 mph 41% 0.00 in CLR
15:20 45.3 °F 23.0 °F 30.08 in Calm   7.0 mph 41% 0.00 in CLR
15:30 45.2 °F 22.2 °F 30.08 in West 2.0 mph 4.0 mph 40% 0.00 in CLR
15:40 45.7 °F 22.7 °F 30.08 in WSW 3.0 mph 5.0 mph 40% 0.00 in CLR
15:50 45.4 °F 23.0 °F 30.08 in WSW 1.0 mph 5.0 mph 41% 0.00 in CLR
16:00 45.6 °F 23.8 °F 30.08 in WSW 1.0 mph 5.0 mph 42% 0.00 in CLR
16:10 45.8 °F 24.0 °F 30.08 in WSW 1.0 mph 9.0 mph 42% 0.00 in CLR
16:20 46.0 °F 24.2 °F 30.08 in WSW 1.0 mph 8.0 mph 42% 0.00 in CLR
16:30 46.1 °F 23.7 °F 30.08 in WSW 1.0 mph 7.0 mph 41% 0.00 in CLR
16:40 46.3 °F 24.4 °F 30.07 in Calm   4.0 mph 42% 0.00 in CLR
16:50 46.4 °F 24.5 °F 30.07 in SW 2.0 mph 5.0 mph 42% 0.00 in CLR
17:00 46.1 °F 24.8 °F 30.07 in Calm   5.0 mph 43% 0.00 in CLR
17:10 45.4 °F 24.7 °F 30.07 in Calm   3.0 mph 44% 0.00 in CLR
17:20 44.6 °F 24.6 °F 30.07 in Calm   2.0 mph 45% 0.00 in CLR
17:30 43.9 °F 24.4 °F 30.08 in Calm   2.0 mph 46% 0.00 in CLR
17:40 43.5 °F 24.6 °F 30.08 in Calm   3.0 mph 47% 0.00 in CLR
17:50 43.0 °F 24.6 °F 30.08 in Calm   3.0 mph 48% 0.00 in CLR
18:00 42.9 °F 24.5 °F 30.09 in Calm   2.0 mph 48% 0.00 in CLR
18:10 42.3 °F 24.4 °F 30.08 in Calm     49% 0.00 in CLR
18:20 42.0 °F 24.7 °F 30.09 in SE 1.0 mph 4.0 mph 50% 0.00 in CLR
18:30 40.8 °F 27.2 °F 30.09 in South 1.0 mph 5.0 mph 58% 0.00 in CLR
18:40 39.9 °F 28.3 °F 30.10 in SSW 1.0 mph 6.0 mph 63% 0.00 in CLR
18:50 39.3 °F 28.9 °F 30.10 in South 2.0 mph 7.0 mph 66% 0.00 in CLR
19:00 38.9 °F 29.2 °F 30.10 in South 1.0 mph 5.0 mph 68% 0.00 in CLR
19:10 38.4 °F 29.5 °F 30.10 in SSE 1.0 mph 3.0 mph 70% 0.00 in CLR
19:20 38.0 °F 29.4 °F 30.09 in SSW 2.0 mph 4.0 mph 71% 0.00 in CLR
19:30 37.8 °F 30.0 °F 30.09 in Calm   4.0 mph 73% 0.00 in CLR
19:40 37.7 °F 30.2 °F 30.09 in Calm   3.0 mph 74% 0.00 in CLR
19:50 37.6 °F 30.4 °F 30.08 in SE 1.0 mph 4.0 mph 75% 0.00 in CLR
20:00 37.4 °F 30.5 °F 30.08 in SSE 1.0 mph 5.0 mph 76% 0.00 in CLR
20:10 37.5 °F 30.9 °F 30.08 in South 1.0 mph 5.0 mph 77% 0.00 in CLR
20:20 37.2 °F 30.7 °F 30.08 in Calm   3.0 mph 77% 0.00 in CLR
20:30 36.9 °F 31.0 °F 30.08 in Calm   5.0 mph 79% 0.00 in CLR
20:40 36.8 °F 31.2 °F 30.08 in Calm   2.0 mph 80% 0.00 in CLR
20:50 36.7 °F 31.4 °F 30.07 in Calm   3.0 mph 81% 0.00 in CLR
21:00 36.5 °F 31.5 °F 30.07 in Calm   1.0 mph 82% 0.00 in CLR
21:10 36.3 °F 31.3 °F 30.07 in Calm   1.0 mph 82% 0.00 in CLR
21:20 36.1 °F 31.5 °F 30.07 in Calm   2.0 mph 83% 0.00 in CLR
21:30 36.1 °F 31.7 °F 30.07 in Calm   2.0 mph 84% 0.00 in CLR
21:40 35.8 °F 31.7 °F 30.07 in Calm   1.0 mph 85% 0.00 in CLR
21:50 35.9 °F 32.1 °F 30.07 in Calm   1.0 mph 86% 0.00 in CLR
22:00 35.5 °F 31.7 °F 30.07 in Calm   1.0 mph 86% 0.00 in CLR
22:10 35.5 °F 32.0 °F 30.07 in Calm   1.0 mph 87% 0.00 in CLR
22:20 35.2 °F 31.7 °F 30.06 in Calm   1.0 mph 87% 0.00 in CLR
22:30 35.3 °F 32.1 °F 30.06 in Calm   2.0 mph 88% 0.00 in CLR
22:40 35.1 °F 31.9 °F 30.06 in Calm   2.0 mph 88% 0.00 in CLR
22:50 34.5 °F 31.3 °F 30.05 in NE 1.0 mph 2.0 mph 88% 0.00 in CLR
23:00 34.3 °F 31.1 °F 30.05 in Calm   1.0 mph 88% 0.00 in CLR
23:10 33.9 °F 31.0 °F 30.05 in Calm   1.0 mph 89% 0.00 in CLR
23:20 34.1 °F 31.2 °F 30.05 in Calm   1.0 mph 89% 0.00 in CLR
23:30 33.6 °F 30.7 °F 30.04 in Calm     89% 0.00 in CLR
23:40 33.6 °F 31.0 °F 30.04 in Calm   1.0 mph 90% 0.00 in CLR
23:50 33.8 °F 31.2 °F 30.04 in Calm   1.0 mph 90% 0.00 in CLR
TarryTown NY Weather
Compliments of Weather Underground - 1.75 mb